Time;durP1;ratioP1;P1;durP2;ratioP2;P2;SDS_P1;SDS_P2;PMS_P1;PMS_P2;Temp;Humidity;BMP_temperature;BMP_pressure;BME280_temperature;BME280_humidity;BME280_pressure;Samples;Min_cycle;Max_cycle;Signal;HPM_P1;HPM_P2
2023/05/02 00:00:12;;;;;;;8.32;7.32;;;;;;;;;;4993650;28;20469;-69
2023/05/02 00:02:38;;;;;;;9.85;7.55;;;;;;;;;;4994779;28;20288;-70
2023/05/02 00:05:05;;;;;;;11.30;7.63;;;;;;;;;;4994332;28;20042;-69
2023/05/02 00:07:32;;;;;;;26.23;13.18;;;;;;;;;;4994227;28;20038;-69
2023/05/02 00:10:01;;;;;;;9.85;7.72;;;;;;;;;;4992198;28;20061;-69
2023/05/02 00:12:27;;;;;;;10.43;8.00;;;;;;;;;;4993808;28;20046;-69
2023/05/02 00:14:52;;;;;;;12.23;8.30;;;;;;;;;;4989307;28;20122;-69
2023/05/02 00:17:19;;;;;;;11.02;8.15;;;;;;;;;;4974706;28;20250;-69
2023/05/02 00:19:45;;;;;;;11.18;7.70;;;;;;;;;;4974294;28;20528;-69
2023/05/02 00:22:11;;;;;;;12.20;8.75;;;;;;;;;;4974647;28;20069;-70
2023/05/02 00:24:36;;;;;;;11.05;7.57;;;;;;;;;;4974869;28;20034;-69
2023/05/02 00:27:02;;;;;;;10.43;7.82;;;;;;;;;;4999801;28;20026;-69
2023/05/02 00:29:28;;;;;;;9.90;8.10;;;;;;;;;;5028239;28;20042;-68
2023/05/02 00:31:54;;;;;;;10.65;8.43;;;;;;;;;;4991006;28;20384;-69
2023/05/02 00:34:20;;;;;;;11.90;8.60;;;;;;;;;;4991069;28;20400;-69
2023/05/02 00:36:47;;;;;;;10.85;8.20;;;;;;;;;;5008698;28;20162;-69
2023/05/02 00:39:12;;;;;;;10.15;8.32;;;;;;;;;;4992089;28;20118;-69
2023/05/02 00:41:38;;;;;;;9.18;7.88;;;;;;;;;;4977828;28;20122;-69
2023/05/02 00:44:04;;;;;;;8.55;7.25;;;;;;;;;;4993597;28;20169;-69
2023/05/02 00:46:30;;;;;;;12.55;8.25;;;;;;;;;;4976106;28;20115;-70
2023/05/02 00:48:56;;;;;;;10.65;8.77;;;;;;;;;;4974156;28;20445;-69
2023/05/02 00:51:22;;;;;;;10.35;7.88;;;;;;;;;;4972545;28;20506;-69
2023/05/02 00:53:48;;;;;;;12.77;7.78;;;;;;;;;;4972731;28;20056;-69
2023/05/02 00:56:14;;;;;;;12.02;8.82;;;;;;;;;;4972768;28;20038;-69
2023/05/02 00:58:40;;;;;;;11.55;7.10;;;;;;;;;;5008447;28;20030;-70
2023/05/02 01:01:43;;;;;;;13.68;8.38;;;;;;;;;;5015768;28;20023;-69
2023/05/02 01:04:36;;;;;;;12.30;9.50;;;;;;;;;;4993414;28;20038;-69
2023/05/02 01:07:12;;;;;;;20.33;10.55;;;;;;;;;;4992949;28;20512;-69
2023/05/02 01:09:56;;;;;;;18.45;10.70;;;;;;;;;;4992323;28;20546;-69
2023/05/02 01:12:41;;;;;;;20.30;10.48;;;;;;;;;;4992206;28;20125;-69
2023/05/02 01:15:11;;;;;;;13.75;10.38;;;;;;;;;;4988166;28;20138;-69
2023/05/02 01:17:38;;;;;;;18.35;10.95;;;;;;;;;;4973543;28;20038;-70
2023/05/02 01:20:08;;;;;;;15.38;9.30;;;;;;;;;;4955529;28;20049;-69
2023/05/02 01:22:39;;;;;;;15.68;9.70;;;;;;;;;;4973488;28;20034;-69
2023/05/02 01:25:36;;;;;;;15.07;10.23;;;;;;;;;;4975992;28;20027;-69
2023/05/02 01:28:30;;;;;;;10.35;8.52;;;;;;;;;;4992815;28;20034;-69
2023/05/02 01:30:57;;;;;;;14.18;10.10;;;;;;;;;;5023957;28;20501;-70
2023/05/02 01:33:25;;;;;;;14.00;11.10;;;;;;;;;;4992487;28;20030;-69
2023/05/02 01:35:52;;;;;;;10.07;8.75;;;;;;;;;;4991030;28;20053;-69
2023/05/02 01:38:19;;;;;;;12.02;9.77;;;;;;;;;;4992256;28;20113;-69
2023/05/02 01:40:49;;;;;;;13.43;9.85;;;;;;;;;;4983825;28;20027;-68
2023/05/02 01:43:15;;;;;;;14.98;9.90;;;;;;;;;;5002287;28;20017;-68
2023/05/02 01:45:44;;;;;;;13.75;10.00;;;;;;;;;;5020732;28;20065;-69
2023/05/02 01:48:11;;;;;;;13.30;10.13;;;;;;;;;;4991114;28;20033;-70
2023/05/02 01:50:40;;;;;;;13.95;11.20;;;;;;;;;;4990942;28;20038;-69
2023/05/02 01:53:10;;;;;;;15.10;10.63;;;;;;;;;;4992964;28;20052;-69
2023/05/02 01:55:38;;;;;;;21.45;12.50;;;;;;;;;;4991362;28;20492;-70
2023/05/02 01:58:06;;;;;;;15.63;11.85;;;;;;;;;;4990536;28;20037;-69
2023/05/02 02:00:33;;;;;;;13.60;11.57;;;;;;;;;;4986350;28;20023;-69
2023/05/02 02:02:59;;;;;;;16.00;11.60;;;;;;;;;;4971446;28;20050;-69
2023/05/02 02:05:27;;;;;;;13.88;11.40;;;;;;;;;;4972491;28;20030;-69
2023/05/02 02:07:53;;;;;;;22.50;11.52;;;;;;;;;;4971206;28;20038;-70
2023/05/02 02:10:19;;;;;;;14.63;11.68;;;;;;;;;;4970957;28;20034;-70
2023/05/02 02:12:53;;;;;;;16.48;10.60;;;;;;;;;;4983128;28;20075;-70
2023/05/02 02:15:24;;;;;;;13.98;12.00;;;;;;;;;;4990117;28;20038;-69
2023/05/02 02:18:04;;;;;;;17.65;12.57;;;;;;;;;;4973146;28;20075;-70
2023/05/02 02:20:31;;;;;;;17.63;13.23;;;;;;;;;;5021056;28;20042;-68
2023/05/02 02:22:59;;;;;;;15.20;12.27;;;;;;;;;;4991739;28;20026;-69
2023/05/02 02:25:25;;;;;;;20.73;14.00;;;;;;;;;;4990838;28;20492;-69
2023/05/02 02:27:52;;;;;;;16.45;13.13;;;;;;;;;;5002486;28;20029;-68
2023/05/02 02:30:18;;;;;;;22.63;14.27;;;;;;;;;;5025359;28;20085;-70
2023/05/02 02:32:43;;;;;;;20.77;14.02;;;;;;;;;;4990582;28;20166;-70
2023/05/02 02:35:10;;;;;;;18.92;13.85;;;;;;;;;;4990259;28;20048;-70
2023/05/02 02:37:45;;;;;;;19.23;13.57;;;;;;;;;;4991238;28;20042;-71
2023/05/02 02:40:33;;;;;;;15.70;12.20;;;;;;;;;;4991045;28;20085;-69
2023/05/02 02:43:18;;;;;;;13.88;12.15;;;;;;;;;;5003069;28;20060;-68
2023/05/02 02:46:06;;;;;;;12.60;10.32;;;;;;;;;;4990302;28;20449;-68
2023/05/02 02:48:54;;;;;;;19.80;12.75;;;;;;;;;;4985239;28;20484;-69
2023/05/02 02:51:42;;;;;;;18.98;12.52;;;;;;;;;;4991056;28;20558;-68
2023/05/02 02:54:13;;;;;;;18.55;13.02;;;;;;;;;;4990218;28;20310;-69
2023/05/02 02:56:41;;;;;;;19.27;14.48;;;;;;;;;;5024423;28;20065;-69
2023/05/02 02:59:26;;;;;;;22.58;14.85;;;;;;;;;;5010899;28;20104;-69
2023/05/02 03:02:02;;;;;;;15.52;12.02;;;;;;;;;;5013630;28;20066;-69
2023/05/02 03:04:31;;;;;;;18.10;14.50;;;;;;;;;;4991431;28;20405;-70
2023/05/02 03:06:58;;;;;;;15.07;12.18;;;;;;;;;;4989866;28;20066;-69
2023/05/02 03:09:29;;;;;;;17.55;13.82;;;;;;;;;;4989667;28;20502;-70
2023/05/02 03:11:56;;;;;;;14.60;12.32;;;;;;;;;;4993681;28;20026;-69
2023/05/02 03:14:23;;;;;;;16.33;11.80;;;;;;;;;;5025874;28;20029;-69
2023/05/02 03:16:49;;;;;;;15.85;12.65;;;;;;;;;;5015153;28;20038;-71
2023/05/02 03:19:14;;;;;;;16.85;14.00;;;;;;;;;;5004415;28;20065;-70
2023/05/02 03:21:40;;;;;;;24.42;14.10;;;;;;;;;;4989178;28;20034;-69
2023/05/02 03:24:15;;;;;;;18.17;14.00;;;;;;;;;;4987849;28;20026;-69
2023/05/02 03:26:41;;;;;;;24.35;14.18;;;;;;;;;;4988034;28;20066;-69
2023/05/02 03:29:09;;;;;;;20.05;14.90;;;;;;;;;;4990380;28;20030;-69
2023/05/02 03:31:39;;;;;;;24.63;14.15;;;;;;;;;;4991744;28;20515;-69
2023/05/02 03:34:05;;;;;;;15.32;12.15;;;;;;;;;;4993015;28;20119;-70
2023/05/02 03:36:31;;;;;;;19.48;12.98;;;;;;;;;;4993040;28;20038;-69
2023/05/02 03:38:57;;;;;;;19.23;13.90;;;;;;;;;;4992478;28;20026;-69
2023/05/02 03:41:23;;;;;;;15.93;12.25;;;;;;;;;;4993099;28;20026;-70
2023/05/02 03:43:55;;;;;;;23.80;13.88;;;;;;;;;;4993058;28;20077;-69
2023/05/02 03:46:23;;;;;;;17.35;13.23;;;;;;;;;;4994131;28;20030;-70
2023/05/02 03:48:49;;;;;;;20.25;13.05;;;;;;;;;;4997476;28;20492;-68
2023/05/02 03:51:16;;;;;;;23.35;14.48;;;;;;;;;;4994726;28;20031;-69
2023/05/02 03:53:45;;;;;;;21.95;14.10;;;;;;;;;;4993542;28;20161;-70
2023/05/02 03:56:11;;;;;;;18.48;13.25;;;;;;;;;;4995317;28;20034;-70
2023/05/02 03:58:47;;;;;;;19.55;13.27;;;;;;;;;;4993661;28;20026;-69
2023/05/02 04:01:17;;;;;;;20.48;14.25;;;;;;;;;;5001899;28;20137;-69
2023/05/02 04:03:46;;;;;;;25.25;16.08;;;;;;;;;;4993953;28;20030;-69
2023/05/02 04:06:15;;;;;;;25.90;15.90;;;;;;;;;;4993596;28;20042;-70
2023/05/02 04:08:43;;;;;;;22.02;14.88;;;;;;;;;;4991641;28;20022;-70
2023/05/02 04:11:08;;;;;;;21.48;15.60;;;;;;;;;;5008306;28;20400;-70
2023/05/02 04:13:34;;;;;;;29.23;16.65;;;;;;;;;;4992352;28;20029;-69
2023/05/02 04:16:01;;;;;;;20.75;15.23;;;;;;;;;;4992426;28;20045;-69
2023/05/02 04:18:30;;;;;;;35.15;16.08;;;;;;;;;;4991943;28;20125;-70
2023/05/02 04:20:57;;;;;;;34.80;18.05;;;;;;;;;;4991767;28;20026;-70
2023/05/02 04:23:23;;;;;;;28.95;16.08;;;;;;;;;;4992065;28;20404;-70
2023/05/02 04:25:55;;;;;;;26.90;15.57;;;;;;;;;;4989723;28;20408;-69
2023/05/02 04:28:27;;;;;;;46.35;17.85;;;;;;;;;;4992540;28;20062;-69
2023/05/02 04:30:55;;;;;;;45.47;18.30;;;;;;;;;;4993095;28;20608;-70
2023/05/02 04:33:23;;;;;;;38.65;17.83;;;;;;;;;;4995449;28;20030;-69
2023/05/02 04:41:42;;;;;;;30.75;15.15;;;;;;;;;;5026742;28;20049;-71
2023/05/02 04:44:08;;;;;;;20.85;13.73;;;;;;;;;;5027382;28;20143;-72
2023/05/02 04:46:36;;;;;;;28.63;15.52;;;;;;;;;;4999224;28;20108;-73
2023/05/02 04:49:01;;;;;;;24.67;14.93;;;;;;;;;;5017683;28;20038;-73
2023/05/02 04:51:30;;;;;;;25.55;13.80;;;;;;;;;;5030463;28;20017;-74
2023/05/02 04:53:57;;;;;;;20.05;11.65;;;;;;;;;;5032263;28;20474;-73
2023/05/02 04:56:30;;;;;;;20.88;13.85;;;;;;;;;;5030932;28;20159;-74
2023/05/02 04:58:55;;;;;;;20.58;12.95;;;;;;;;;;5027119;28;20041;-72
2023/05/02 05:01:23;;;;;;;18.50;13.73;;;;;;;;;;5028558;28;20022;-73
2023/05/02 05:03:49;;;;;;;21.55;13.95;;;;;;;;;;5024601;28;20079;-73
2023/05/02 05:06:16;;;;;;;28.02;14.10;;;;;;;;;;5030813;28;20029;-72
2023/05/02 05:08:44;;;;;;;20.35;13.57;;;;;;;;;;5029843;28;20440;-72
2023/05/02 05:11:11;;;;;;;24.83;13.57;;;;;;;;;;5022988;28;20076;-72
2023/05/02 05:13:38;;;;;;;18.45;12.02;;;;;;;;;;5021772;28;20037;-72
2023/05/02 05:16:05;;;;;;;16.52;9.68;;;;;;;;;;5019709;28;20049;-72
2023/05/02 05:18:39;;;;;;;14.70;9.98;;;;;;;;;;5028377;28;20094;-71
2023/05/02 05:21:06;;;;;;;;;;;;;;;;;;5040129;28;20449;-72
2023/05/02 05:23:34;;;;;;;15.95;8.52;;;;;;;;;;5031550;28;19920;-71
2023/05/02 05:29:51;;;;;;;14.82;8.60;;;;;;;;;;5030347;28;20126;-71
2023/05/02 05:32:17;;;;;;;13.20;9.18;;;;;;;;;;5026449;28;20087;-71
2023/05/02 05:34:43;;;;;;;11.48;8.05;;;;;;;;;;5018914;28;20546;-72
2023/05/02 05:37:09;;;;;;;15.80;9.65;;;;;;;;;;5021461;28;20157;-71
2023/05/02 05:39:35;;;;;;;17.75;9.93;;;;;;;;;;5026987;28;20075;-71
2023/05/02 05:49:36;;;;;;;16.27;9.18;;;;;;;;;;5030819;28;20060;-70
2023/05/02 05:52:02;;;;;;;9.52;6.90;;;;;;;;;;5038513;28;20030;-71
2023/05/02 05:54:28;;;;;;;14.85;8.27;;;;;;;;;;5013813;28;20308;-71
2023/05/02 06:00:41;;;;;;;11.85;7.65;;;;;;;;;;5028245;28;20198;-70
2023/05/02 06:03:07;;;;;;;14.30;8.57;;;;;;;;;;5029096;28;20041;-71
2023/05/02 06:05:33;;;;;;;12.07;7.10;;;;;;;;;;5023206;28;20086;-72
2023/05/02 06:07:59;;;;;;;12.80;6.82;;;;;;;;;;5027328;28;20033;-72
2023/05/02 06:10:27;;;;;;;15.07;7.28;;;;;;;;;;5027566;28;20384;-72
2023/05/02 06:12:53;;;;;;;8.70;6.00;;;;;;;;;;5028543;28;20053;-72
2023/05/02 06:15:23;;;;;;;8.50;5.45;;;;;;;;;;5027723;28;20036;-72
2023/05/02 06:17:51;;;;;;;8.27;5.20;;;;;;;;;;5027205;28;20068;-73
2023/05/02 06:20:17;;;;;;;9.48;4.35;;;;;;;;;;5028178;28;20029;-72
2023/05/02 06:22:42;;;;;;;8.20;4.78;;;;;;;;;;5012124;28;20036;-72
2023/05/02 06:25:08;;;;;;;6.57;4.40;;;;;;;;;;5029792;28;20021;-72
2023/05/02 06:27:34;;;;;;;6.25;4.18;;;;;;;;;;5030219;28;20055;-71
2023/05/02 06:30:00;;;;;;;6.57;3.58;;;;;;;;;;5031528;28;20022;-73
2023/05/02 06:32:30;;;;;;;4.55;3.95;;;;;;;;;;5030802;28;20041;-74
2023/05/02 06:34:56;;;;;;;8.65;4.75;;;;;;;;;;5029637;28;20048;-73
2023/05/02 06:37:22;;;;;;;9.82;4.82;;;;;;;;;;5028151;28;20260;-73
2023/05/02 06:39:47;;;;;;;8.15;5.07;;;;;;;;;;5043857;28;20194;-71
2023/05/02 06:42:13;;;;;;;10.63;4.22;;;;;;;;;;5029165;28;20347;-70
2023/05/02 06:44:39;;;;;;;8.32;5.47;;;;;;;;;;5022443;28;20483;-71
2023/05/02 06:47:06;;;;;;;10.13;5.13;;;;;;;;;;5029951;28;20029;-70
2023/05/02 06:49:32;;;;;;;9.45;5.40;;;;;;;;;;5031464;28;20550;-71
2023/05/02 06:51:57;;;;;;;6.15;3.70;;;;;;;;;;5030859;28;20057;-70
2023/05/02 06:54:23;;;;;;;5.63;4.57;;;;;;;;;;5030976;28;20040;-71
2023/05/02 06:56:49;;;;;;;5.05;3.58;;;;;;;;;;5030991;28;20021;-71
2023/05/02 06:59:18;;;;;;;6.57;3.90;;;;;;;;;;5030527;28;20029;-72
2023/05/02 07:01:44;;;;;;;5.65;3.95;;;;;;;;;;5045345;28;20029;-70
2023/05/02 07:04:10;;;;;;;7.38;4.28;;;;;;;;;;5030492;28;20559;-70
2023/05/02 07:06:36;;;;;;;7.97;4.18;;;;;;;;;;5030641;28;20096;-71
2023/05/02 07:09:02;;;;;;;7.32;3.90;;;;;;;;;;5030390;28;20034;-72
2023/05/02 07:11:29;;;;;;;7.55;3.75;;;;;;;;;;5030473;28;20028;-72
2023/05/02 07:13:56;;;;;;;8.15;4.22;;;;;;;;;;5031335;28;20430;-72
2023/05/02 07:16:22;;;;;;;6.70;3.92;;;;;;;;;;5031559;28;20053;-71
2023/05/02 07:18:48;;;;;;;7.72;3.97;;;;;;;;;;5031200;28;20546;-72
2023/05/02 07:21:13;;;;;;;7.28;3.97;;;;;;;;;;5030264;28;20033;-72
2023/05/02 07:23:39;;;;;;;7.88;3.97;;;;;;;;;;5030107;28;20033;-70
2023/05/02 07:26:05;;;;;;;5.13;3.88;;;;;;;;;;5030397;28;20510;-71
2023/05/02 07:28:31;;;;;;;10.77;4.35;;;;;;;;;;5030249;28;20039;-71
2023/05/02 07:30:57;;;;;;;5.68;3.97;;;;;;;;;;5030562;28;20100;-72
2023/05/02 07:33:23;;;;;;;8.30;3.90;;;;;;;;;;5028698;28;20416;-71
2023/05/02 07:35:49;;;;;;;9.70;4.00;;;;;;;;;;5027719;28;20045;-72
2023/05/02 07:38:16;;;;;;;9.88;3.97;;;;;;;;;;5024903;28;20029;-71
2023/05/02 07:40:42;;;;;;;6.25;4.20;;;;;;;;;;5025518;28;20037;-71
2023/05/02 07:43:09;;;;;;;7.28;3.67;;;;;;;;;;5029290;28;20096;-73
2023/05/02 07:45:34;;;;;;;7.22;4.57;;;;;;;;;;5029734;28;20025;-70
2023/05/02 07:48:00;;;;;;;7.50;4.03;;;;;;;;;;5028476;28;20512;-71
2023/05/02 07:50:26;;;;;;;7.28;4.35;;;;;;;;;;5029293;28;20418;-71
2023/05/02 07:52:54;;;;;;;5.68;3.97;;;;;;;;;;5029804;28;20040;-71
2023/05/02 07:55:20;;;;;;;8.13;4.15;;;;;;;;;;5029847;28;20457;-71
2023/05/02 07:57:46;;;;;;;5.63;3.80;;;;;;;;;;5028093;28;20092;-71
2023/05/02 08:00:12;;;;;;;7.72;4.53;;;;;;;;;;5029944;28;20030;-73
2023/05/02 08:02:41;;;;;;;16.00;4.10;;;;;;;;;;5028691;28;20155;-71
2023/05/02 08:05:08;;;;;;;14.45;4.38;;;;;;;;;;5030172;28;20466;-72
2023/05/02 08:07:34;;;;;;;15.65;4.40;;;;;;;;;;5029265;28;20566;-71
2023/05/02 08:10:00;;;;;;;16.55;5.45;;;;;;;;;;5044514;28;20029;-71
2023/05/02 08:12:26;;;;;;;6.68;4.00;;;;;;;;;;5030008;28;20486;-72
2023/05/02 08:14:52;;;;;;;7.85;3.90;;;;;;;;;;5029180;28;20026;-72
2023/05/02 08:17:19;;;;;;;8.75;3.97;;;;;;;;;;5031744;28;20036;-73
2023/05/02 08:19:44;;;;;;;7.20;4.20;;;;;;;;;;5030140;28;20431;-72
2023/05/02 08:22:10;;;;;;;8.05;3.83;;;;;;;;;;5028022;28;20617;-73
2023/05/02 08:24:36;;;;;;;9.43;3.60;;;;;;;;;;5022107;28;20625;-73
2023/05/02 08:27:02;;;;;;;7.50;3.50;;;;;;;;;;5027012;28;20107;-72
2023/05/02 08:29:29;;;;;;;5.68;3.53;;;;;;;;;;5012021;28;20026;-72
2023/05/02 08:31:55;;;;;;;7.93;4.05;;;;;;;;;;5030791;28;20037;-72
2023/05/02 08:34:21;;;;;;;4.97;3.55;;;;;;;;;;5032816;28;20021;-73
2023/05/02 08:36:47;;;;;;;6.63;3.63;;;;;;;;;;5032406;28;20068;-72
2023/05/02 08:39:13;;;;;;;14.75;4.57;;;;;;;;;;5047586;28;20055;-73
2023/05/02 08:41:39;;;;;;;18.45;4.00;;;;;;;;;;5030188;28;20413;-72
2023/05/02 08:44:06;;;;;;;9.20;3.53;;;;;;;;;;5032758;28;20048;-71
2023/05/02 08:46:35;;;;;;;9.02;3.35;;;;;;;;;;5032346;28;20037;-73
2023/05/02 08:49:01;;;;;;;7.43;3.88;;;;;;;;;;5028838;28;20079;-72
2023/05/02 08:51:29;;;;;;;12.43;3.88;;;;;;;;;;5030205;28;20033;-72
2023/05/02 08:53:55;;;;;;;8.90;3.70;;;;;;;;;;5032120;28;20500;-71
2023/05/02 08:56:20;;;;;;;8.15;3.22;;;;;;;;;;5031650;28;20398;-70
2023/05/02 08:58:46;;;;;;;7.65;3.10;;;;;;;;;;5046722;28;20041;-71
2023/05/02 09:01:18;;;;;;;5.90;3.20;;;;;;;;;;5031299;28;20068;-72
2023/05/02 09:03:56;;;;;;;14.30;4.10;;;;;;;;;;5031458;28;20528;-73
2023/05/02 09:06:22;;;;;;;9.80;4.15;;;;;;;;;;5032315;28;20166;-72
2023/05/02 09:08:51;;;;;;;5.15;3.15;;;;;;;;;;5047080;28;20049;-72
2023/05/02 09:11:17;;;;;;;8.90;3.40;;;;;;;;;;5030371;28;20482;-70
2023/05/02 09:13:47;;;;;;;6.50;3.25;;;;;;;;;;5030538;28;20025;-73
2023/05/02 09:16:14;;;;;;;6.57;3.35;;;;;;;;;;5031288;28;20034;-72
2023/05/02 09:18:43;;;;;;;5.75;3.45;;;;;;;;;;5031957;28;20025;-72
2023/05/02 09:21:10;;;;;;;4.47;2.78;;;;;;;;;;5031934;28;20501;-72
2023/05/02 09:23:38;;;;;;;5.60;3.10;;;;;;;;;;5029327;28;20040;-73
2023/05/02 09:26:15;;;;;;;6.60;3.38;;;;;;;;;;5030564;28;20128;-72
2023/05/02 09:28:43;;;;;;;4.95;2.70;;;;;;;;;;5030147;28;20088;-72
2023/05/02 09:31:11;;;;;;;5.13;2.92;;;;;;;;;;5030849;28;20120;-72
2023/05/02 09:33:40;;;;;;;10.70;2.85;;;;;;;;;;5030631;28;20033;-71
2023/05/02 09:36:07;;;;;;;5.38;3.20;;;;;;;;;;5047253;28;20030;-73
2023/05/02 09:38:34;;;;;;;5.15;3.17;;;;;;;;;;5030170;28;20033;-73
2023/05/02 09:41:02;;;;;;;8.35;3.55;;;;;;;;;;5031268;28;20032;-72
2023/05/02 09:43:29;;;;;;;5.30;2.97;;;;;;;;;;5030592;28;20227;-72
2023/05/02 09:46:06;;;;;;;9.35;3.05;;;;;;;;;;5031961;28;20029;-73
2023/05/02 09:48:51;;;;;;;7.18;2.70;;;;;;;;;;5030348;28;20503;-73
2023/05/02 09:51:17;;;;;;;7.00;3.42;;;;;;;;;;5030182;28;20100;-72
2023/05/02 09:53:45;;;;;;;6.43;2.47;;;;;;;;;;5031571;28;20048;-71
2023/05/02 09:56:10;;;;;;;10.40;2.50;;;;;;;;;;5032054;28;20029;-72
2023/05/02 09:58:36;;;;;;;3.97;2.38;;;;;;;;;;5029223;28;20451;-72
2023/05/02 10:01:03;;;;;;;6.03;2.67;;;;;;;;;;5026532;28;20025;-71
2023/05/02 10:03:30;;;;;;;4.90;2.63;;;;;;;;;;5030030;28;20451;-72
2023/05/02 10:05:57;;;;;;;4.55;2.55;;;;;;;;;;5016162;28;20557;-72
2023/05/02 10:08:27;;;;;;;9.38;2.40;;;;;;;;;;5026240;28;20028;-72
2023/05/02 10:11:02;;;;;;;6.75;2.40;;;;;;;;;;5035342;28;20067;-71
2023/05/02 10:13:33;;;;;;;7.95;2.40;;;;;;;;;;5045659;28;20025;-73
2023/05/02 10:16:06;;;;;;;4.63;2.17;;;;;;;;;;5046297;28;20389;-72
2023/05/02 10:18:41;;;;;;;8.23;2.53;;;;;;;;;;5045852;28;20053;-73
2023/05/02 10:21:10;;;;;;;8.70;2.97;;;;;;;;;;5041862;28;20091;-72
2023/05/02 10:23:40;;;;;;;5.72;2.38;;;;;;;;;;5045980;28;20134;-71
2023/05/02 10:26:07;;;;;;;8.35;2.60;;;;;;;;;;5045707;28;20041;-72
2023/05/02 10:28:33;;;;;;;3.78;2.28;;;;;;;;;;5044772;28;20398;-72
2023/05/02 10:31:01;;;;;;;5.63;2.30;;;;;;;;;;5046743;28;20033;-72
2023/05/02 10:33:30;;;;;;;4.05;2.30;;;;;;;;;;5044086;28;20021;-72
2023/05/02 10:35:57;;;;;;;6.13;2.47;;;;;;;;;;5044177;28;20529;-72
2023/05/02 10:38:24;;;;;;;15.90;3.17;;;;;;;;;;5027562;28;20501;-72
2023/05/02 10:40:55;;;;;;;10.60;2.45;;;;;;;;;;5044002;28;20128;-73
2023/05/02 10:43:27;;;;;;;5.65;2.78;;;;;;;;;;5045601;28;20435;-72
2023/05/02 10:45:53;;;;;;;7.95;2.42;;;;;;;;;;5043632;28;20038;-73
2023/05/02 10:48:21;;;;;;;5.88;2.35;;;;;;;;;;5044552;28;20544;-72
2023/05/02 10:50:51;;;;;;;5.15;2.70;;;;;;;;;;5048740;28;20065;-71
2023/05/02 10:53:38;;;;;;;7.60;2.40;;;;;;;;;;5043601;28;20052;-74
2023/05/02 10:56:22;;;;;;;6.90;2.60;;;;;;;;;;5044986;28;20040;-72
2023/05/02 10:58:50;;;;;;;6.50;2.60;;;;;;;;;;5049704;28;20374;-72
2023/05/02 11:01:28;;;;;;;7.13;2.60;;;;;;;;;;5049018;28;20024;-73
2023/05/02 11:03:57;;;;;;;5.45;2.70;;;;;;;;;;5050559;28;20547;-72
2023/05/02 11:06:25;;;;;;;8.82;3.55;;;;;;;;;;5050385;28;20075;-72
2023/05/02 11:08:51;;;;;;;9.30;2.80;;;;;;;;;;5049809;28;20448;-74
2023/05/02 11:11:40;;;;;;;3.67;2.15;;;;;;;;;;5049216;28;20028;-72
2023/05/02 11:14:08;;;;;;;4.78;2.60;;;;;;;;;;5050923;28;20494;-73
2023/05/02 11:16:58;;;;;;;3.17;2.20;;;;;;;;;;5050475;28;20120;-72
2023/05/02 11:19:27;;;;;;;7.78;2.10;;;;;;;;;;5050402;28;20425;-72
2023/05/02 11:22:26;;;;;;;7.45;2.67;;;;;;;;;;5048543;28;20026;-73
2023/05/02 11:24:52;;;;;;;7.53;2.67;;;;;;;;;;5049251;28;20044;-72
2023/05/02 11:27:37;;;;;;;6.30;2.30;;;;;;;;;;5049121;28;20029;-71
2023/05/02 11:30:05;;;;;;;4.05;2.20;;;;;;;;;;5050370;28;20029;-71
2023/05/02 11:32:44;;;;;;;5.55;2.47;;;;;;;;;;5050878;28;20390;-72
2023/05/02 11:35:18;;;;;;;8.98;2.67;;;;;;;;;;5051434;28;20065;-72
2023/05/02 11:37:57;;;;;;;5.20;2.30;;;;;;;;;;5051103;28;20029;-73
2023/05/02 11:40:24;;;;;;;4.43;2.17;;;;;;;;;;5066411;28;20406;-73
2023/05/02 11:42:50;;;;;;;5.60;2.47;;;;;;;;;;5050415;28;20135;-72
2023/05/02 11:45:16;;;;;;;3.72;2.08;;;;;;;;;;5050277;28;20060;-72
2023/05/02 11:47:42;;;;;;;6.22;2.60;;;;;;;;;;5049814;28;20032;-72
2023/05/02 11:50:08;;;;;;;6.35;2.25;;;;;;;;;;5050718;28;20476;-72
2023/05/02 11:52:39;;;;;;;6.07;2.75;;;;;;;;;;5053975;28;20405;-72
2023/05/02 11:55:07;;;;;;;4.82;2.70;;;;;;;;;;5046404;28;20056;-72
2023/05/02 11:57:34;;;;;;;5.05;2.25;;;;;;;;;;5060409;28;20047;-72
2023/05/02 12:00:00;;;;;;;4.03;2.35;;;;;;;;;;5053741;28;20029;-72
2023/05/02 12:02:42;;;;;;;9.95;2.90;;;;;;;;;;5054046;28;20448;-74
2023/05/02 12:05:11;;;;;;;5.63;2.60;;;;;;;;;;5047040;28;20075;-74
2023/05/02 12:07:45;;;;;;;5.93;2.45;;;;;;;;;;5052453;28;20379;-73
2023/05/02 12:10:12;;;;;;;7.95;2.38;;;;;;;;;;5069260;28;20068;-72
2023/05/02 12:12:39;;;;;;;7.28;2.95;;;;;;;;;;5077609;28;20064;-72
2023/05/02 12:15:10;;;;;;;6.45;3.08;;;;;;;;;;5053845;28;20398;-75
2023/05/02 12:17:40;;;;;;;10.05;3.28;;;;;;;;;;5054283;28;20159;-74
2023/05/02 12:20:09;;;;;;;6.50;2.47;;;;;;;;;;5046156;28;20025;-73
2023/05/02 12:22:35;;;;;;;7.60;2.70;;;;;;;;;;5058452;28;20124;-72
2023/05/02 12:25:03;;;;;;;7.20;2.50;;;;;;;;;;5052789;28;20482;-73
2023/05/02 12:27:28;;;;;;;4.53;2.42;;;;;;;;;;5053472;28;20021;-73
2023/05/02 12:29:56;;;;;;;5.18;2.80;;;;;;;;;;5053256;28;20041;-74
2023/05/02 12:32:30;;;;;;;7.28;2.92;;;;;;;;;;5060438;28;20032;-74
2023/05/02 12:34:57;;;;;;;5.25;2.80;;;;;;;;;;5044216;28;20033;-74
2023/05/02 12:37:26;;;;;;;11.20;2.58;;;;;;;;;;5043594;28;20390;-72
2023/05/02 12:39:54;;;;;;;6.88;2.80;;;;;;;;;;5053225;28;20044;-73
2023/05/02 12:42:24;;;;;;;5.13;2.60;;;;;;;;;;5053199;28;20040;-73
2023/05/02 12:44:52;;;;;;;4.07;2.40;;;;;;;;;;5053382;28;20086;-73
2023/05/02 12:47:18;;;;;;;5.85;3.10;;;;;;;;;;5044769;28;20478;-75
2023/05/02 12:49:56;;;;;;;7.38;2.63;;;;;;;;;;5053309;28;20533;-74
2023/05/02 12:52:46;;;;;;;5.10;2.40;;;;;;;;;;5053064;28;20033;-72
2023/05/02 12:55:20;;;;;;;5.10;2.50;;;;;;;;;;5044348;28;20037;-71
2023/05/02 12:57:46;;;;;;;7.50;2.97;;;;;;;;;;5052501;28;20033;-71
2023/05/02 13:00:15;;;;;;;4.55;2.20;;;;;;;;;;5051718;28;20490;-73
2023/05/02 13:02:41;;;;;;;6.60;2.55;;;;;;;;;;5042141;28;20084;-73
2023/05/02 13:05:16;;;;;;;5.88;2.60;;;;;;;;;;5052154;28;20056;-74
2023/05/02 13:07:42;;;;;;;6.95;2.33;;;;;;;;;;5051967;28;20090;-73
2023/05/02 13:10:10;;;;;;;8.57;2.45;;;;;;;;;;5052806;28;20020;-73
2023/05/02 13:12:37;;;;;;;5.22;2.88;;;;;;;;;;5038684;28;20522;-72
2023/05/02 13:15:07;;;;;;;5.90;2.65;;;;;;;;;;5031375;28;20475;-73
2023/05/02 13:17:34;;;;;;;8.00;2.70;;;;;;;;;;5033669;28;20452;-73
2023/05/02 13:20:03;;;;;;;4.75;2.30;;;;;;;;;;5051258;28;20097;-73
2023/05/02 13:22:28;;;;;;;4.53;2.72;;;;;;;;;;5050490;28;20086;-74
2023/05/02 13:24:54;;;;;;;7.22;2.53;;;;;;;;;;5053619;28;20033;-73
2023/05/02 13:27:24;;;;;;;8.48;2.97;;;;;;;;;;5051751;28;20478;-74
2023/05/02 13:29:50;;;;;;;8.65;2.78;;;;;;;;;;5050100;28;20028;-75
2023/05/02 13:32:17;;;;;;;5.88;2.70;;;;;;;;;;5059884;28;20532;-73
2023/05/02 13:34:44;;;;;;;4.85;2.40;;;;;;;;;;5043236;28;20052;-75
2023/05/02 13:37:10;;;;;;;5.10;3.22;;;;;;;;;;5052579;28;20479;-74
2023/05/02 13:39:36;;;;;;;7.35;2.53;;;;;;;;;;5035030;28;20111;-75
2023/05/02 13:42:02;;;;;;;5.95;3.08;;;;;;;;;;5052973;28;20080;-74
2023/05/02 13:44:29;;;;;;;8.60;3.00;;;;;;;;;;5068252;28;20471;-73
2023/05/02 13:46:55;;;;;;;6.32;2.45;;;;;;;;;;5052566;28;20032;-76
2023/05/02 13:49:21;;;;;;;7.88;3.13;;;;;;;;;;5052630;28;20035;-74
2023/05/02 13:51:49;;;;;;;5.63;2.58;;;;;;;;;;5052475;28;20086;-74
2023/05/02 13:54:14;;;;;;;7.57;2.95;;;;;;;;;;5052561;28;20033;-73
2023/05/02 13:56:41;;;;;;;3.90;2.38;;;;;;;;;;5053145;28;20033;-72
2023/05/02 13:59:07;;;;;;;4.75;2.40;;;;;;;;;;5052203;28;20469;-74
2023/05/02 14:01:33;;;;;;;6.00;2.60;;;;;;;;;;5052739;28;20108;-74
2023/05/02 14:03:59;;;;;;;6.00;2.50;;;;;;;;;;5050540;28;20466;-76
2023/05/02 14:06:25;;;;;;;4.85;2.60;;;;;;;;;;5052579;28;20062;-73
2023/05/02 14:08:51;;;;;;;5.80;2.60;;;;;;;;;;5034028;28;20115;-75
2023/05/02 14:11:17;;;;;;;8.43;2.95;;;;;;;;;;5067317;28;20145;-72
2023/05/02 14:13:43;;;;;;;8.20;2.75;;;;;;;;;;5053396;28;20025;-75
2023/05/02 14:16:09;;;;;;;4.85;2.42;;;;;;;;;;5052627;28;20037;-74
2023/05/02 14:18:35;;;;;;;5.07;2.63;;;;;;;;;;5052651;28;20374;-76
2023/05/02 14:21:02;;;;;;;7.30;3.58;;;;;;;;;;5052017;28;20039;-74
2023/05/02 14:23:27;;;;;;;8.90;3.20;;;;;;;;;;5051958;28;20025;-75
2023/05/02 14:25:54;;;;;;;9.13;3.38;;;;;;;;;;5050537;28;20158;-75
2023/05/02 14:28:21;;;;;;;7.90;3.00;;;;;;;;;;5051944;28;20040;-74
2023/05/02 14:30:48;;;;;;;10.32;3.03;;;;;;;;;;5051008;28;20402;-73
2023/05/02 14:33:14;;;;;;;9.48;3.33;;;;;;;;;;5052037;28;20021;-74
2023/05/02 14:35:40;;;;;;;7.22;3.25;;;;;;;;;;5052242;28;20071;-75
2023/05/02 14:38:06;;;;;;;8.38;2.92;;;;;;;;;;5051858;28;20052;-74
2023/05/02 14:40:32;;;;;;;7.38;3.10;;;;;;;;;;5051662;28;20041;-74
2023/05/02 14:43:00;;;;;;;6.38;3.40;;;;;;;;;;5051528;28;20055;-73
2023/05/02 14:45:26;;;;;;;7.43;3.47;;;;;;;;;;5051827;28;20052;-75
2023/05/02 14:47:52;;;;;;;6.70;3.75;;;;;;;;;;5047447;28;20041;-72
2023/05/02 14:50:18;;;;;;;9.20;3.90;;;;;;;;;;5051180;28;20111;-73
2023/05/02 14:52:46;;;;;;;8.73;4.00;;;;;;;;;;5050934;28;20119;-74
2023/05/02 14:55:12;;;;;;;10.38;3.58;;;;;;;;;;5050879;28;20068;-74
2023/05/02 14:57:38;;;;;;;7.60;4.20;;;;;;;;;;5065756;28;20025;-74
2023/05/02 15:00:08;;;;;;;11.80;4.07;;;;;;;;;;5050715;28;20241;-74
2023/05/02 15:02:35;;;;;;;6.10;3.45;;;;;;;;;;5065685;28;20036;-74